^^
TXWeather Station Historical Data
Daily Summary for March 09, 2022 Units:  English    Metric   Both
Daily Weekly Monthly Yearly Custom
  High: Low: Average:
Temperature: 60.0 °F 41.0 °F 49.3 °F
Dew Point: 44.0 °F 36.0 °F 40.6 °F
Humidity: 87% 54% 73%
Wind Speed: 15mph 1mph 7mph
Wind Gust: 15mph - -
Wind- - East
Pressure: 30.1 in 30.0 in -
Precipitation: 0.000 in    
Historical Graphs
 
 
Tabular Data for March 09, 2022
Time Temperature Dew Point Pressure Wind Wind Speed Wind Gust Humidity Rainfall Rate (Hourly) solar
00:04 43.0 °F 39.0 °F 30.1 in North 14 mph 14 mph 87% 0.000 in 0.00 W/m2
00:09 43.0 °F 39.0 °F 30.1 in NNE 10 mph 14 mph 87% 0.000 in 0.00 W/m2
00:14 43.0 °F 39.0 °F 30.1 in NNE 11 mph 11 mph 87% 0.000 in 0.00 W/m2
00:19 43.0 °F 39.0 °F 30.1 in NNE 10 mph 12 mph 87% 0.000 in 0.00 W/m2
00:24 43.0 °F 39.0 °F 30.1 in NNE 9 mph 9 mph 87% 0.000 in 0.00 W/m2
00:29 43.0 °F 39.0 °F 30.1 in NNE 11 mph 12 mph 87% 0.000 in 0.00 W/m2
00:34 43.0 °F 39.0 °F 30.1 in North 11 mph 11 mph 87% 0.000 in 0.00 W/m2
00:39 43.0 °F 39.0 °F 30.1 in NNE 7 mph 11 mph 87% 0.000 in 0.00 W/m2
00:44 43.0 °F 39.0 °F 30.1 in North 9 mph 9 mph 87% 0.000 in 0.00 W/m2
00:49 43.0 °F 39.0 °F 30.1 in North 8 mph 9 mph 87% 0.000 in 0.00 W/m2
00:54 43.0 °F 39.0 °F 30.1 in NNE 13 mph 13 mph 86% 0.000 in 0.00 W/m2
00:59 43.0 °F 39.0 °F 30.1 in North 12 mph 13 mph 86% 0.000 in 0.00 W/m2
01:04 43.0 °F 39.0 °F 30.1 in North 10 mph 13 mph 86% 0.000 in 0.00 W/m2
01:09 43.0 °F 39.0 °F 30.1 in North 12 mph 12 mph 86% 0.000 in 0.00 W/m2
01:14 43.0 °F 39.0 °F 30.1 in NNE 9 mph 12 mph 86% 0.000 in 0.00 W/m2
01:19 43.0 °F 39.0 °F 30.1 in NNE 9 mph 10 mph 86% 0.000 in 0.00 W/m2
01:24 43.0 °F 39.0 °F 30.1 in North 10 mph 13 mph 86% 0.000 in 0.00 W/m2
01:29 43.0 °F 40.0 °F 30.1 in North 8 mph 8 mph 87% 0.000 in 0.00 W/m2
01:34 43.0 °F 40.0 °F 30.1 in NNE 7 mph 9 mph 87% 0.000 in 0.00 W/m2
01:39 43.0 °F 40.0 °F 30.1 in North 6 mph 9 mph 87% 0.000 in 0.00 W/m2
01:44 43.0 °F 40.0 °F 30.1 in NNW 5 mph 7 mph 87% 0.000 in 0.00 W/m2
01:49 43.0 °F 40.0 °F 30.1 in NNW 8 mph 8 mph 87% 0.000 in 0.00 W/m2
01:54 43.0 °F 40.0 °F 30.1 in NNW 10 mph 10 mph 87% 0.000 in 0.00 W/m2
01:59 43.0 °F 40.0 °F 30.1 in North 11 mph 11 mph 87% 0.000 in 0.00 W/m2
02:04 43.0 °F 40.0 °F 30.1 in NNW 9 mph 9 mph 87% 0.000 in 0.00 W/m2
02:09 43.0 °F 39.0 °F 30.1 in NNW 9 mph 9 mph 86% 0.000 in 0.00 W/m2
02:14 43.0 °F 39.0 °F 30.1 in NNW 9 mph 9 mph 86% 0.000 in 0.00 W/m2
02:19 43.0 °F 39.0 °F 30.1 in North 9 mph 9 mph 86% 0.000 in 0.00 W/m2
02:24 43.0 °F 39.0 °F 30.1 in North 8 mph 9 mph 86% 0.000 in 0.00 W/m2
02:29 43.0 °F 39.0 °F 30.1 in North 10 mph 10 mph 86% 0.000 in 0.00 W/m2
02:34 43.0 °F 39.0 °F 30.1 in North 8 mph 10 mph 86% 0.000 in 0.00 W/m2
02:39 43.0 °F 39.0 °F 30.1 in NNW 8 mph 8 mph 86% 0.000 in 0.00 W/m2
02:44 43.0 °F 39.0 °F 30.1 in NNW 9 mph 9 mph 86% 0.000 in 0.00 W/m2
02:49 43.0 °F 39.0 °F 30.1 in North 10 mph 11 mph 86% 0.000 in 0.00 W/m2
02:54 43.0 °F 39.0 °F 30.1 in North 11 mph 11 mph 86% 0.000 in 0.00 W/m2
02:59 43.0 °F 39.0 °F 30.1 in NNW 12 mph 12 mph 86% 0.000 in 0.00 W/m2
03:04 43.0 °F 39.0 °F 30.1 in North 12 mph 12 mph 86% 0.000 in 0.00 W/m2
03:09 43.0 °F 39.0 °F 30.1 in North 10 mph 12 mph 86% 0.000 in 0.00 W/m2
03:14 43.0 °F 39.0 °F 30.1 in North 12 mph 13 mph 86% 0.000 in 0.00 W/m2
03:19 43.0 °F 39.0 °F 30.1 in North 8 mph 10 mph 86% 0.000 in 0.00 W/m2
03:24 43.0 °F 39.0 °F 30.1 in North 12 mph 12 mph 86% 0.000 in 0.00 W/m2
03:29 43.0 °F 39.0 °F 30.1 in NNW 9 mph 9 mph 86% 0.000 in 0.00 W/m2
03:34 43.0 °F 39.0 °F 30.1 in North 10 mph 10 mph 86% 0.000 in 0.00 W/m2
03:39 43.0 °F 39.0 °F 30.1 in North 10 mph 10 mph 86% 0.000 in 0.00 W/m2
03:44 43.0 °F 39.0 °F 30.1 in North 12 mph 12 mph 86% 0.000 in 0.00 W/m2
03:49 43.0 °F 39.0 °F 30.1 in North 10 mph 10 mph 86% 0.000 in 0.00 W/m2
03:54 43.0 °F 39.0 °F 30.1 in North 13 mph 14 mph 86% 0.000 in 0.00 W/m2
03:59 43.0 °F 39.0 °F 30.1 in North 13 mph 14 mph 86% 0.000 in 0.00 W/m2
04:04 43.0 °F 39.0 °F 30.1 in North 10 mph 12 mph 86% 0.000 in 0.00 W/m2
04:09 43.0 °F 39.0 °F 30.1 in North 10 mph 11 mph 86% 0.000 in 0.00 W/m2
04:14 43.0 °F 39.0 °F 30.1 in NNW 10 mph 11 mph 85% 0.000 in 0.00 W/m2
04:19 43.0 °F 39.0 °F 30.1 in North 12 mph 12 mph 85% 0.000 in 0.00 W/m2
04:24 43.0 °F 39.0 °F 30.1 in North 10 mph 12 mph 85% 0.000 in 0.00 W/m2
04:29 43.0 °F 39.0 °F 30.1 in North 6 mph 10 mph 85% 0.000 in 0.00 W/m2
04:34 42.0 °F 38.0 °F 30.1 in North 5 mph 7 mph 85% 0.000 in 0.00 W/m2
04:39 42.0 °F 38.0 °F 30.1 in North 10 mph 10 mph 85% 0.000 in 0.00 W/m2
04:44 42.0 °F 38.0 °F 30.1 in North 10 mph 12 mph 85% 0.000 in 0.00 W/m2
04:49 42.0 °F 38.0 °F 30.1 in North 9 mph 10 mph 85% 0.000 in 0.00 W/m2
04:54 42.0 °F 37.0 °F 30.1 in North 9 mph 10 mph 84% 0.000 in 0.00 W/m2
04:59 42.0 °F 37.0 °F 30.1 in NNE 9 mph 9 mph 84% 0.000 in 0.00 W/m2
05:04 42.0 °F 37.0 °F 30.1 in NNE 4 mph 8 mph 84% 0.000 in 0.00 W/m2
05:09 42.0 °F 37.0 °F 30.1 in NNE 8 mph 8 mph 84% 0.000 in 0.00 W/m2
05:14 42.0 °F 37.0 °F 30.1 in NNE 9 mph 10 mph 84% 0.000 in 0.00 W/m2
05:19 42.0 °F 37.0 °F 30.1 in NNE 5 mph 10 mph 84% 0.000 in 0.00 W/m2
05:24 41.0 °F 37.0 °F 30.1 in NNE 8 mph 9 mph 84% 0.000 in 0.00 W/m2
05:29 41.0 °F 37.0 °F 30.1 in North 8 mph 9 mph 84% 0.000 in 0.00 W/m2
05:34 41.0 °F 37.0 °F 30.1 in NNE 7 mph 9 mph 84% 0.000 in 0.00 W/m2
05:39 41.0 °F 37.0 °F 30.1 in NNE 6 mph 9 mph 84% 0.000 in 0.00 W/m2
05:44 41.0 °F 37.0 °F 30.1 in NNE 8 mph 9 mph 84% 0.000 in 0.00 W/m2
05:49 41.0 °F 36.0 °F 30.1 in North 8 mph 9 mph 84% 0.000 in 0.00 W/m2
05:54 41.0 °F 36.0 °F 30.1 in North 10 mph 11 mph 84% 0.000 in 0.00 W/m2
05:59 41.0 °F 37.0 °F 30.1 in North 8 mph 10 mph 85% 0.000 in 0.00 W/m2
06:04 41.0 °F 37.0 °F 30.1 in NNE 11 mph 12 mph 85% 0.000 in 0.00 W/m2
06:09 41.0 °F 37.0 °F 30.1 in North 11 mph 11 mph 85% 0.000 in 0.00 W/m2
06:14 41.0 °F 37.0 °F 30.1 in NNE 11 mph 12 mph 85% 0.000 in 0.00 W/m2
06:24 41.0 °F 37.0 °F 30.1 in North 12 mph 12 mph 85% 0.000 in 0.00 W/m2
06:29 41.0 °F 37.0 °F 30.1 in North 14 mph 14 mph 85% 0.000 in 0.00 W/m2
06:34 41.0 °F 37.0 °F 30.1 in North 12 mph 15 mph 85% 0.000 in 0.00 W/m2
06:39 41.0 °F 37.0 °F 30.1 in North 14 mph 14 mph 85% 0.000 in 0.00 W/m2
06:44 41.0 °F 37.0 °F 30.1 in North 10 mph 10 mph 85% 0.000 in 0.00 W/m2
06:49 41.0 °F 37.0 °F 30.1 in North 8 mph 11 mph 85% 0.000 in 14.00 W/m2
06:54 41.0 °F 37.0 °F 30.1 in North 12 mph 12 mph 85% 0.000 in 25.00 W/m2
06:59 41.0 °F 37.0 °F 30.1 in North 12 mph 12 mph 85% 0.000 in 37.00 W/m2
07:04 41.0 °F 37.0 °F 30.1 in North 12 mph 12 mph 85% 0.000 in 39.00 W/m2
07:09 41.0 °F 37.0 °F 30.1 in North 11 mph 11 mph 85% 0.000 in 46.00 W/m2
07:14 41.0 °F 37.0 °F 30.1 in North 10 mph 12 mph 85% 0.000 in 53.00 W/m2
07:19 42.0 °F 37.0 °F 30.1 in North 15 mph 15 mph 85% 0.000 in 51.00 W/m2
07:24 42.0 °F 37.0 °F 30.1 in North 12 mph 13 mph 85% 0.000 in 63.00 W/m2
07:29 42.0 °F 38.0 °F 30.1 in NNE 7 mph 8 mph 85% 0.000 in 63.00 W/m2
07:34 42.0 °F 38.0 °F 30.1 in North 9 mph 10 mph 85% 0.000 in 42.00 W/m2
07:39 42.0 °F 37.0 °F 30.1 in North 12 mph 14 mph 84% 0.000 in 46.00 W/m2
07:44 42.0 °F 37.0 °F 30.1 in NNE 10 mph 10 mph 84% 0.000 in 53.00 W/m2
07:49 42.0 °F 38.0 °F 30.1 in NNE 11 mph 11 mph 84% 0.000 in 65.00 W/m2
07:54 42.0 °F 38.0 °F 30.1 in NNE 6 mph 10 mph 84% 0.000 in 113.00 W/m2
07:59 42.0 °F 38.0 °F 30.1 in East 8 mph 9 mph 84% 0.000 in 72.00 W/m2
08:04 42.0 °F 38.0 °F 30.1 in NE 6 mph 9 mph 83% 0.000 in 88.00 W/m2
08:09 42.0 °F 38.0 °F 30.1 in NE 5 mph 6 mph 83% 0.000 in 123.00 W/m2
08:14 43.0 °F 38.0 °F 30.1 in NE 5 mph 8 mph 83% 0.000 in 123.00 W/m2
08:19 43.0 °F 38.0 °F 30.1 in NNE 6 mph 7 mph 83% 0.000 in 114.00 W/m2
08:24 43.0 °F 38.0 °F 30.1 in NNE 4 mph 8 mph 83% 0.000 in 120.00 W/m2
08:29 43.0 °F 38.0 °F 30.1 in NE 4 mph 5 mph 83% 0.000 in 130.00 W/m2
08:34 43.0 °F 38.0 °F 30.1 in NNE 6 mph 6 mph 82% 0.000 in 130.00 W/m2
08:39 43.0 °F 38.0 °F 30.1 in NE 9 mph 9 mph 82% 0.000 in 146.00 W/m2
08:44 43.0 °F 38.0 °F 30.1 in NNE 7 mph 7 mph 82% 0.000 in 202.00 W/m2
08:49 44.0 °F 39.0 °F 30.1 in NNE 6 mph 8 mph 82% 0.000 in 186.00 W/m2
08:54 44.0 °F 39.0 °F 30.1 in NNE 6 mph 8 mph 82% 0.000 in 137.00 W/m2
08:59 44.0 °F 39.0 °F 30.1 in North 8 mph 8 mph 81% 0.000 in 163.00 W/m2
09:04 44.0 °F 39.0 °F 30.1 in North 9 mph 10 mph 81% 0.000 in 206.00 W/m2
09:09 44.0 °F 39.0 °F 30.1 in North 9 mph 10 mph 81% 0.000 in 204.00 W/m2
09:14 44.0 °F 39.0 °F 30.1 in North 10 mph 10 mph 81% 0.000 in 163.00 W/m2
09:19 44.0 °F 39.0 °F 30.1 in North 9 mph 9 mph 81% 0.000 in 163.00 W/m2
09:24 45.0 °F 39.0 °F 30.1 in NE 9 mph 10 mph 80% 0.000 in 163.00 W/m2
09:29 45.0 °F 39.0 °F 30.1 in North 7 mph 8 mph 80% 0.000 in 183.00 W/m2
09:34 45.0 °F 39.0 °F 30.1 in NNE 8 mph 9 mph 80% 0.000 in 223.00 W/m2
09:39 45.0 °F 39.0 °F 30.1 in NNE 10 mph 10 mph 80% 0.000 in 213.00 W/m2
09:44 45.0 °F 39.0 °F 30.1 in NNE 8 mph 10 mph 79% 0.000 in 213.00 W/m2
09:49 45.0 °F 39.0 °F 30.1 in North 9 mph 9 mph 79% 0.000 in 165.00 W/m2
09:54 45.0 °F 39.0 °F 30.1 in NNE 9 mph 10 mph 79% 0.000 in 163.00 W/m2
09:59 45.0 °F 39.0 °F 30.1 in NNE 9 mph 11 mph 78% 0.000 in 378.00 W/m2
10:04 46.0 °F 40.0 °F 30.1 in NNE 9 mph 11 mph 79% 0.000 in 540.00 W/m2
10:09 47.0 °F 41.0 °F 30.1 in North 9 mph 9 mph 79% 0.000 in 724.00 W/m2
10:14 48.0 °F 42.0 °F 30.1 in NNW 8 mph 10 mph 79% 0.000 in 912.00 W/m2
10:19 48.0 °F 42.0 °F 30.1 in North 9 mph 11 mph 78% 0.000 in 893.00 W/m2
10:24 49.0 °F 41.0 °F 30.1 in NNE 11 mph 13 mph 76% 0.000 in 489.00 W/m2
10:29 49.0 °F 41.0 °F 30.1 in NNE 9 mph 13 mph 75% 0.000 in 473.00 W/m2
10:34 49.0 °F 41.0 °F 30.1 in NNW 7 mph 10 mph 74% 0.000 in 343.00 W/m2
10:39 49.0 °F 41.0 °F 30.1 in North 8 mph 10 mph 73% 0.000 in 327.00 W/m2
10:44 49.0 °F 40.0 °F 30.1 in NNW 9 mph 9 mph 72% 0.000 in 265.00 W/m2
10:49 49.0 °F 40.0 °F 30.1 in North 10 mph 10 mph 72% 0.000 in 309.00 W/m2
10:54 49.0 °F 40.0 °F 30.1 in NNE 13 mph 13 mph 72% 0.000 in 508.00 W/m2
10:59 49.0 °F 41.0 °F 30.1 in NNE 10 mph 13 mph 72% 0.000 in 649.00 W/m2
11:04 50.0 °F 41.0 °F 30.1 in NNW 8 mph 8 mph 72% 0.000 in 682.00 W/m2
11:09 51.0 °F 42.0 °F 30.1 in North 9 mph 9 mph 72% 0.000 in 875.00 W/m2
11:14 51.0 °F 42.0 °F 30.1 in NNE 10 mph 10 mph 70% 0.000 in 875.00 W/m2
11:19 52.0 °F 42.0 °F 30.1 in North 12 mph 12 mph 70% 0.000 in 519.00 W/m2
11:24 52.0 °F 42.0 °F 30.1 in North 10 mph 12 mph 69% 0.000 in 594.00 W/m2
11:29 52.0 °F 42.0 °F 30.1 in North 6 mph 8 mph 69% 0.000 in 594.00 W/m2
11:34 52.0 °F 42.0 °F 30.1 in North 13 mph 14 mph 68% 0.000 in 594.00 W/m2
11:39 53.0 °F 43.0 °F 30.1 in North 6 mph 9 mph 68% 0.000 in 719.00 W/m2
11:44 53.0 °F 42.0 °F 30.1 in NNW 14 mph 14 mph 67% 0.000 in 496.00 W/m2
11:49 53.0 °F 42.0 °F 30.1 in North 8 mph 8 mph 67% 0.000 in 705.00 W/m2
11:54 53.0 °F 42.0 °F 30.1 in NNE 7 mph 7 mph 67% 0.000 in 497.00 W/m2
11:59 53.0 °F 42.0 °F 30.1 in North 11 mph 12 mph 66% 0.000 in 531.00 W/m2
12:04 53.0 °F 42.0 °F 30.1 in North 8 mph 12 mph 66% 0.000 in 981.00 W/m2
12:09 54.0 °F 43.0 °F 30.1 in North 10 mph 11 mph 65% 0.000 in 1007.00 W/m2
12:14 55.0 °F 42.0 °F 30.1 in NNE 10 mph 10 mph 63% 0.000 in 967.00 W/m2
12:19 55.0 °F 42.0 °F 30.1 in NE 7 mph 10 mph 63% 0.000 in 940.00 W/m2
12:24 54.0 °F 41.0 °F 30.1 in NE 6 mph 7 mph 62% 0.000 in 624.00 W/m2
12:29 54.0 °F 41.0 °F 30.1 in NNE 10 mph 10 mph 62% 0.000 in 483.00 W/m2
12:34 54.0 °F 41.0 °F 30.1 in NE 5 mph 7 mph 61% 0.000 in 483.00 W/m2
12:39 54.0 °F 40.0 °F 30.1 in North 9 mph 10 mph 60% 0.000 in 246.00 W/m2
12:44 54.0 °F 40.0 °F 30.1 in NNE 6 mph 10 mph 60% 0.000 in 153.00 W/m2
12:49 54.0 °F 40.0 °F 30.1 in NNE 4 mph 8 mph 61% 0.000 in 267.00 W/m2
12:54 54.0 °F 41.0 °F 30.1 in North 8 mph 10 mph 62% 0.000 in 545.00 W/m2
12:59 55.0 °F 41.0 °F 30.1 in NNE 8 mph 10 mph 62% 0.000 in 719.00 W/m2
13:04 56.0 °F 42.0 °F 30.1 in NNE 6 mph 8 mph 59% 0.000 in 747.00 W/m2
13:09 56.0 °F 42.0 °F 30.1 in ENE 6 mph 6 mph 60% 0.000 in 1041.00 W/m2
13:14 57.0 °F 42.0 °F 30.1 in NNW 9 mph 9 mph 60% 0.000 in 1041.00 W/m2
13:19 57.0 °F 42.0 °F 30.1 in NNE 8 mph 9 mph 58% 0.000 in 926.00 W/m2
13:24 57.0 °F 43.0 °F 30.1 in North 5 mph 6 mph 59% 0.000 in 893.00 W/m2
13:29 57.0 °F 42.0 °F 30.1 in NNE 8 mph 8 mph 58% 0.000 in 879.00 W/m2
13:34 58.0 °F 42.0 °F 30.1 in NNW 9 mph 9 mph 57% 0.000 in 884.00 W/m2
13:39 58.0 °F 42.0 °F 30.1 in North 10 mph 10 mph 56% 0.000 in 891.00 W/m2
13:44 58.0 °F 43.0 °F 30.0 in NE 7 mph 11 mph 58% 0.000 in 882.00 W/m2
13:49 58.0 °F 44.0 °F 30.0 in NE 8 mph 11 mph 60% 0.000 in 877.00 W/m2
13:54 58.0 °F 44.0 °F 30.0 in NNW 4 mph 9 mph 60% 0.000 in 898.00 W/m2
13:59 58.0 °F 44.0 °F 30.0 in West 8 mph 9 mph 59% 0.000 in 684.00 W/m2
14:04 58.0 °F 44.0 °F 30.0 in NE 7 mph 7 mph 59% 0.000 in 531.00 W/m2
14:09 58.0 °F 43.0 °F 30.0 in NE 9 mph 11 mph 58% 0.000 in 478.00 W/m2
14:14 58.0 °F 43.0 °F 30.0 in ENE 6 mph 8 mph 57% 0.000 in 415.00 W/m2
14:19 58.0 °F 43.0 °F 30.0 in ENE 5 mph 6 mph 57% 0.000 in 427.00 W/m2
14:24 58.0 °F 43.0 °F 30.0 in NNE 8 mph 8 mph 57% 0.000 in 369.00 W/m2
14:29 58.0 °F 43.0 °F 30.0 in NE 10 mph 10 mph 57% 0.000 in 422.00 W/m2
14:34 58.0 °F 42.0 °F 30.0 in ENE 6 mph 10 mph 56% 0.000 in 429.00 W/m2
14:39 58.0 °F 43.0 °F 30.0 in NE 8 mph 8 mph 57% 0.000 in 429.00 W/m2
14:44 58.0 °F 43.0 °F 30.0 in NNE 9 mph 9 mph 57% 0.000 in 394.00 W/m2
14:49 59.0 °F 43.0 °F 30.0 in NNE 6 mph 10 mph 57% 0.000 in 457.00 W/m2
14:54 59.0 °F 43.0 °F 30.0 in East 7 mph 7 mph 57% 0.000 in 376.00 W/m2
14:59 59.0 °F 44.0 °F 30.0 in ESE 4 mph 4 mph 57% 0.000 in 397.00 W/m2
15:04 59.0 °F 44.0 °F 30.0 in North 9 mph 10 mph 57% 0.000 in 353.00 W/m2
15:09 59.0 °F 43.0 °F 30.0 in ENE 7 mph 10 mph 56% 0.000 in 353.00 W/m2
15:14 59.0 °F 43.0 °F 30.0 in NE 8 mph 9 mph 56% 0.000 in 288.00 W/m2
15:19 59.0 °F 43.0 °F 30.0 in NE 5 mph 8 mph 56% 0.000 in 272.00 W/m2
15:24 59.0 °F 43.0 °F 30.0 in NNE 7 mph 7 mph 56% 0.000 in 250.00 W/m2
15:29 59.0 °F 43.0 °F 30.0 in ENE 6 mph 7 mph 56% 0.000 in 253.00 W/m2
15:34 59.0 °F 43.0 °F 30.0 in NE 5 mph 7 mph 56% 0.000 in 311.00 W/m2
15:39 59.0 °F 44.0 °F 30.0 in NE 6 mph 7 mph 57% 0.000 in 334.00 W/m2
15:44 59.0 °F 44.0 °F 30.0 in NNE 6 mph 8 mph 57% 0.000 in 262.00 W/m2
15:49 59.0 °F 43.0 °F 30.0 in NE 8 mph 9 mph 56% 0.000 in 388.00 W/m2
15:54 59.0 °F 43.0 °F 30.0 in ENE 5 mph 9 mph 56% 0.000 in 225.00 W/m2
15:59 59.0 °F 43.0 °F 30.0 in NE 4 mph 9 mph 56% 0.000 in 313.00 W/m2
16:04 59.0 °F 43.0 °F 30.0 in NNE 5 mph 9 mph 56% 0.000 in 313.00 W/m2
16:09 59.0 °F 43.0 °F 30.0 in NNW 6 mph 6 mph 56% 0.000 in 313.00 W/m2
16:14 59.0 °F 43.0 °F 30.0 in North 8 mph 8 mph 56% 0.000 in 244.00 W/m2
16:19 59.0 °F 43.0 °F 30.0 in North 6 mph 6 mph 56% 0.000 in 234.00 W/m2
16:24 59.0 °F 44.0 °F 30.0 in ENE 4 mph 5 mph 56% 0.000 in 248.00 W/m2
16:29 60.0 °F 44.0 °F 30.0 in ENE 6 mph 6 mph 56% 0.000 in 311.00 W/m2
16:34 60.0 °F 43.0 °F 30.0 in ENE 4 mph 5 mph 55% 0.000 in 193.00 W/m2
16:39 59.0 °F 43.0 °F 30.0 in East 6 mph 6 mph 54% 0.000 in 250.00 W/m2
16:44 59.0 °F 43.0 °F 30.0 in NE 5 mph 5 mph 55% 0.000 in 144.00 W/m2
16:49 59.0 °F 43.0 °F 30.0 in NE 5 mph 6 mph 55% 0.000 in 146.00 W/m2
16:54 59.0 °F 43.0 °F 30.0 in ENE 4 mph 6 mph 56% 0.000 in 121.00 W/m2
16:59 59.0 °F 44.0 °F 30.0 in ENE 6 mph 7 mph 57% 0.000 in 264.00 W/m2
17:04 59.0 °F 43.0 °F 30.0 in NE 5 mph 7 mph 56% 0.000 in 190.00 W/m2
17:09 59.0 °F 43.0 °F 30.0 in NE 4 mph 5 mph 56% 0.000 in 199.00 W/m2
17:14 59.0 °F 43.0 °F 30.0 in ENE 6 mph 6 mph 56% 0.000 in 262.00 W/m2
17:19 59.0 °F 43.0 °F 30.0 in East 6 mph 6 mph 56% 0.000 in 234.00 W/m2
17:24 59.0 °F 43.0 °F 30.0 in NE 6 mph 6 mph 56% 0.000 in 241.00 W/m2
17:29 59.0 °F 43.0 °F 30.0 in ENE 4 mph 6 mph 56% 0.000 in 223.00 W/m2
17:34 59.0 °F 44.0 °F 30.0 in NE 4 mph 4 mph 57% 0.000 in 144.00 W/m2
17:39 59.0 °F 44.0 °F 30.0 in East 6 mph 6 mph 57% 0.000 in 86.00 W/m2
17:44 59.0 °F 43.0 °F 30.0 in East 4 mph 7 mph 56% 0.000 in 63.00 W/m2
17:49 59.0 °F 43.0 °F 30.0 in ENE 4 mph 7 mph 56% 0.000 in 46.00 W/m2
17:54 58.0 °F 43.0 °F 30.0 in NE 4 mph 4 mph 57% 0.000 in 40.00 W/m2
17:59 58.0 °F 43.0 °F 30.0 in NE 3 mph 4 mph 57% 0.000 in 33.00 W/m2
18:04 58.0 °F 43.0 °F 30.0 in East 3 mph 3 mph 58% 0.000 in 23.00 W/m2
18:09 58.0 °F 43.0 °F 30.0 in ENE 4 mph 4 mph 59% 0.000 in 18.00 W/m2
18:14 57.0 °F 43.0 °F 30.0 in ENE 4 mph 4 mph 59% 0.000 in 11.00 W/m2
18:19 57.0 °F 43.0 °F 30.0 in ENE 4 mph 4 mph 60% 0.000 in 9.00 W/m2
18:24 57.0 °F 44.0 °F 30.0 in NE 3 mph 4 mph 61% 0.000 in 5.00 W/m2
18:29 57.0 °F 43.0 °F 30.0 in NE 3 mph 3 mph 61% 0.000 in 0.00 W/m2
18:34 57.0 °F 44.0 °F 30.0 in NE 8 mph 8 mph 62% 0.000 in 0.00 W/m2
18:39 57.0 °F 44.0 °F 30.0 in NE 4 mph 8 mph 62% 0.000 in 0.00 W/m2
18:44 56.0 °F 44.0 °F 30.0 in NE 3 mph 4 mph 63% 0.000 in 0.00 W/m2
18:49 56.0 °F 44.0 °F 30.0 in NE 4 mph 4 mph 63% 0.000 in 0.00 W/m2
18:54 56.0 °F 44.0 °F 30.0 in NE 4 mph 4 mph 64% 0.000 in 0.00 W/m2
18:59 56.0 °F 44.0 °F 30.0 in NE 5 mph 5 mph 64% 0.000 in 0.00 W/m2
19:04 56.0 °F 44.0 °F 30.0 in NE 3 mph 4 mph 64% 0.000 in 0.00 W/m2
19:09 56.0 °F 44.0 °F 30.0 in NE 5 mph 5 mph 65% 0.000 in 0.00 W/m2
19:14 56.0 °F 44.0 °F 30.0 in NE 6 mph 6 mph 65% 0.000 in 0.00 W/m2
19:19 55.0 °F 44.0 °F 30.0 in NE 5 mph 5 mph 66% 0.000 in 0.00 W/m2
19:24 55.0 °F 44.0 °F 30.0 in NE 4 mph 5 mph 66% 0.000 in 0.00 W/m2
19:29 55.0 °F 44.0 °F 30.0 in NE 3 mph 4 mph 66% 0.000 in 0.00 W/m2
19:34 55.0 °F 44.0 °F 30.0 in NE 4 mph 4 mph 66% 0.000 in 0.00 W/m2
19:39 55.0 °F 44.0 °F 30.0 in NE 4 mph 4 mph 67% 0.000 in 0.00 W/m2
19:44 54.0 °F 44.0 °F 30.0 in NE 4 mph 4 mph 67% 0.000 in 0.00 W/m2
19:49 54.0 °F 43.0 °F 30.0 in NE 3 mph 4 mph 67% 0.000 in 0.00 W/m2
19:54 54.0 °F 43.0 °F 30.0 in NE 2 mph 3 mph 67% 0.000 in 0.00 W/m2
19:59 54.0 °F 44.0 °F 30.0 in NE 3 mph 3 mph 68% 0.000 in 0.00 W/m2
20:04 54.0 °F 44.0 °F 30.0 in NE 3 mph 3 mph 68% 0.000 in 0.00 W/m2
20:09 53.0 °F 43.0 °F 30.0 in NE 3 mph 3 mph 68% 0.000 in 0.00 W/m2
20:14 53.0 °F 43.0 °F 30.0 in NE 3 mph 3 mph 68% 0.000 in 0.00 W/m2
20:19 53.0 °F 43.0 °F 30.0 in NE 4 mph 4 mph 69% 0.000 in 0.00 W/m2
20:24 53.0 °F 43.0 °F 30.0 in NE 3 mph 4 mph 69% 0.000 in 0.00 W/m2
20:29 53.0 °F 43.0 °F 30.0 in NE 3 mph 3 mph 69% 0.000 in 0.00 W/m2
20:34 52.0 °F 43.0 °F 30.0 in NE 2 mph 3 mph 70% 0.000 in 0.00 W/m2
20:39 52.0 °F 43.0 °F 30.0 in NE 3 mph 3 mph 70% 0.000 in 0.00 W/m2
20:44 52.0 °F 42.0 °F 30.0 in NE 2 mph 3 mph 70% 0.000 in 0.00 W/m2
20:49 52.0 °F 42.0 °F 30.0 in NE 2 mph 2 mph 70% 0.000 in 0.00 W/m2
20:54 51.0 °F 42.0 °F 30.0 in NE 2 mph 2 mph 70% 0.000 in 0.00 W/m2
20:59 51.0 °F 42.0 °F 30.0 in NE 2 mph 2 mph 70% 0.000 in 0.00 W/m2
21:04 51.0 °F 42.0 °F 30.0 in NE 2 mph 2 mph 71% 0.000 in 0.00 W/m2
21:09 51.0 °F 42.0 °F 30.0 in NE 2 mph 2 mph 71% 0.000 in 0.00 W/m2
21:14 51.0 °F 42.0 °F 30.1 in NE 2 mph 2 mph 71% 0.000 in 0.00 W/m2
21:19 51.0 °F 42.0 °F 30.1 in NE 3 mph 3 mph 71% 0.000 in 0.00 W/m2
21:24 50.0 °F 41.0 °F 30.1 in NE 1 mph 2 mph 71% 0.000 in 0.00 W/m2
21:29 50.0 °F 41.0 °F 30.1 in NE 2 mph 2 mph 71% 0.000 in 0.00 W/m2
21:34 50.0 °F 41.0 °F 30.1 in NE 2 mph 2 mph 72% 0.000 in 0.00 W/m2
21:39 50.0 °F 41.0 °F 30.1 in NE 2 mph 2 mph 72% 0.000 in 0.00 W/m2
21:44 50.0 °F 41.0 °F 30.1 in NE 2 mph 2 mph 72% 0.000 in 0.00 W/m2
21:49 49.0 °F 41.0 °F 30.1 in NE 1 mph 1 mph 72% 0.000 in 0.00 W/m2
21:54 49.0 °F 41.0 °F 30.1 in NE 1 mph 1 mph 72% 0.000 in 0.00 W/m2
21:59 49.0 °F 41.0 °F 30.1 in NE 1 mph 1 mph 73% 0.000 in 0.00 W/m2
22:04 49.0 °F 41.0 °F 30.0 in NE 2 mph 2 mph 73% 0.000 in 0.00 W/m2
22:09 49.0 °F 40.0 °F 30.0 in NE 1 mph 2 mph 73% 0.000 in 0.00 W/m2
22:14 48.0 °F 40.0 °F 30.0 in East 3 mph 3 mph 74% 0.000 in 0.00 W/m2
22:19 48.0 °F 40.0 °F 30.0 in ENE 3 mph 4 mph 74% 0.000 in 0.00 W/m2
22:24 48.0 °F 40.0 °F 30.0 in ENE 3 mph 4 mph 75% 0.000 in 0.00 W/m2
22:29 48.0 °F 40.0 °F 30.0 in ENE 3 mph 3 mph 75% 0.000 in 0.00 W/m2
22:34 48.0 °F 40.0 °F 30.0 in ENE 3 mph 4 mph 75% 0.000 in 0.00 W/m2
22:39 48.0 °F 40.0 °F 30.0 in ENE 3 mph 3 mph 75% 0.000 in 0.00 W/m2
22:44 48.0 °F 41.0 °F 30.0 in ENE 3 mph 3 mph 76% 0.000 in 0.00 W/m2
22:49 48.0 °F 41.0 °F 30.1 in NE 5 mph 5 mph 76% 0.000 in 0.00 W/m2
22:54 48.0 °F 41.0 °F 30.1 in NE 4 mph 4 mph 76% 0.000 in 0.00 W/m2
22:59 48.0 °F 41.0 °F 30.1 in NE 4 mph 4 mph 76% 0.000 in 0.00 W/m2
23:04 48.0 °F 41.0 °F 30.1 in NNE 3 mph 4 mph 76% 0.000 in 0.00 W/m2
23:09 48.0 °F 41.0 °F 30.1 in NE 3 mph 3 mph 76% 0.000 in 0.00 W/m2
23:14 48.0 °F 40.0 °F 30.1 in NE 2 mph 3 mph 76% 0.000 in 0.00 W/m2
23:19 48.0 °F 40.0 °F 30.1 in NE 2 mph 2 mph 76% 0.000 in 0.00 W/m2
23:24 48.0 °F 40.0 °F 30.1 in NE 2 mph 2 mph 76% 0.000 in 0.00 W/m2
23:29 47.0 °F 40.0 °F 30.1 in NE 3 mph 3 mph 76% 0.000 in 0.00 W/m2
23:34 47.0 °F 40.0 °F 30.1 in NE 3 mph 3 mph 77% 0.000 in 0.00 W/m2
23:39 47.0 °F 40.0 °F 30.1 in NE 2 mph 3 mph 77% 0.000 in 0.00 W/m2
23:44 47.0 °F 40.0 °F 30.1 in NE 3 mph 3 mph 77% 0.000 in 0.00 W/m2
23:49 47.0 °F 40.0 °F 30.1 in NE 2 mph 2 mph 77% 0.000 in 0.00 W/m2
23:54 47.0 °F 40.0 °F 30.1 in ENE 3 mph 3 mph 78% 0.000 in 0.00 W/m2
23:59 46.0 °F 40.0 °F 30.0 in ENE 3 mph 4 mph 78% 0.000 in 0.00 W/m2
Villages of Bridgestone, Spring, TX USA
Compliments of Weather Underground - 4 mb